Flight Track Log - Related Links

Times and Time Zones

All times are in EDT time to prevent confusion due to time zone crossing. See the AAL1963 flight status page for this flight to view local times or setup timezone preferences in your user account.

Time Position Orientation Groundspeed Altitude Reporting Facility
EDT Latitude Longitude Course Direction KTS MPH feet Rate Location/Type
Wed 09:02:14 AM 32.8833 -97.0500 166° South 159 183 1,300  Level Dallas / Fort Worth TRACON
Wed 09:03:26 AM 32.8333 -97.0500 180° South 227 261 4,100 2,636 Climbing Dallas / Fort Worth TRACON
Wed 09:04:26 AM 32.7667 -97.0500 180° South 243 280 7,100 2,230 Climbing Dallas / Fort Worth TRACON
Wed 09:05:00 AM 32.4184 -96.8804 159° South  Level FlightAware Approximate
Wed 09:06:00 AM 32.3082 -96.8187 148° Southeast  Level FlightAware Approximate
Wed 09:06:37 AM 32.5989 -96.9844 162° South 289 333 11,200  Level Fort Worth Center
Wed 09:07:00 AM 32.1931 -96.7729 166° South  Level FlightAware Approximate
Wed 09:07:37 AM 32.5111 -96.9381 156° South 337 388 13,200  Level Fort Worth Center
Wed 09:08:37 AM 32.4189 -96.8892 156° South 355 409 15,100 1,850 Climbing Fort Worth Center
Wed 09:09:37 AM 32.3331 -96.8406 154° Southeast 372 428 16,900 1,850 Climbing Fort Worth Center
Wed 09:10:37 AM 32.2161 -96.8092 167° South 390 449 18,800 1,850 Climbing Fort Worth Center
Wed 09:11:37 AM 32.1033 -96.8150 183° South 403 464 20,600 1,750 Climbing Fort Worth Center
Wed 09:12:37 AM 31.9864 -96.8133 179° South 408 470 22,300 1,600 Climbing Fort Worth Center
Wed 09:13:37 AM 31.8861 -96.7894 169° South 408 470 23,800 1,500 Climbing Fort Worth Center
Wed 09:13:57 AM 31.8447 -96.7806 170° South 423 487 24,300 1,463 Climbing Houston Center
Wed 09:14:59 AM 31.7228 -96.7558 170° South 436 502 25,800 1,887 Climbing Houston Center
Wed 09:16:01 AM 31.6000 -96.7300 170° South 440 506 28,200 2,016 Climbing Houston Center
Wed 09:17:04 AM 31.4706 -96.7022 170° South 460 529 30,000 2,160 Climbing Houston Center
Wed 09:18:06 AM 31.3222 -96.6722 170° South 461 531 32,700 2,177 Climbing Houston Center
Wed 09:19:08 AM 31.2214 -96.5822 143° Southeast 465 535 34,500 1,645 Climbing Houston Center
Wed 09:20:10 AM 31.1314 -96.4753 134° Southeast 455 524 36,100 1,210 Climbing Houston Center
Wed 09:21:12 AM 31.0422 -96.3708 135° Southeast 457 526 37,000 435 Climbing Houston Center
Wed 09:22:14 AM 30.9553 -96.2625 133° Southeast 455 524 37,000  Level Houston Center
Wed 09:23:16 AM 30.8633 -96.1575 136° Southeast 457 526 37,000  Level Houston Center
Wed 09:24:18 AM 30.7742 -96.0506 134° Southeast 454 522 37,000  Level Houston Center
Wed 09:25:20 AM 30.6719 -95.9283 134° Southeast 455 524 37,000  Level Houston Center
Wed 09:26:23 AM 30.5878 -95.8272 134° Southeast 455 524 37,000  Level Houston Center
Wed 09:27:25 AM 30.5000 -95.7208 134° Southeast 457 526 37,000  Level Houston Center
Wed 09:28:27 AM 30.4119 -95.6156 134° Southeast 455 524 37,000  Level Houston Center
Wed 09:29:29 AM 30.3231 -95.5103 134° Southeast 455 524 37,000  Level Houston Center
Wed 09:30:31 AM 30.2172 -95.3828 134° Southeast 457 526 37,000  Level Houston Center
Wed 09:31:33 AM 30.1286 -95.2761 134° Southeast 458 527 37,000  Level Houston Center
Wed 09:32:35 AM 30.0386 -95.1711 135° Southeast 457 526 37,000  Level Houston Center
Wed 09:33:37 AM 29.9469 -95.0642 135° Southeast 462 532 37,000  Level Houston Center
Wed 09:34:40 AM 29.8553 -94.9556 134° Southeast 466 536 37,000  Level Houston Center
Wed 09:35:42 AM 29.7619 -94.8481 135° Southeast 469 540 37,000  Level Houston Center
Wed 09:36:44 AM 29.6700 -94.7400 134° Southeast 467 537 37,000  Level Houston Center
Wed 09:37:46 AM 29.5594 -94.6119 135° Southeast 466 536 37,000  Level Houston Center
Wed 09:38:48 AM 29.4681 -94.5058 135° Southeast 466 536 37,000  Level Houston Center
Wed 09:39:50 AM 29.3753 -94.3992 135° Southeast 470 541 37,000  Level Houston Center
Wed 09:40:52 AM 29.2839 -94.2942 135° Southeast 465 535 37,000  Level Houston Center
Wed 09:41:54 AM 29.1925 -94.1894 135° Southeast 465 535 37,000  Level Houston Center
Wed 09:42:57 AM 29.1019 -94.0856 135° Southeast 463 533 37,000  Level Houston Center
Wed 09:43:59 AM 28.9933 -93.9622 135° Southeast 457 526 37,000  Level Houston Center
Wed 09:45:01 AM 28.9022 -93.8578 135° Southeast 462 532 37,000  Level Houston Center
Wed 09:46:03 AM 28.8122 -93.7567 135° Southeast 457 526 37,000  Level Houston Center
Wed 09:47:05 AM 28.7208 -93.6542 135° Southeast 460 529 37,000  Level Houston Center
Wed 09:48:07 AM 28.6297 -93.5500 135° Southeast 462 532 37,000  Level Houston Center
Wed 09:49:09 AM 28.5375 -93.4467 135° Southeast 465 535 37,000  Level Houston Center
Wed 09:50:12 AM 28.4264 -93.3242 136° Southeast 466 536 37,000  Level Houston Center
Wed 09:51:14 AM 28.3300 -93.2167 136° Southeast 468 539 37,000  Level Houston Center
Wed 09:52:16 AM 28.2381 -93.1100 134° Southeast 472 543 37,000  Level Houston Center
Wed 09:53:18 AM 28.1436 -93.0072 136° Southeast 473 544 37,000  Level Houston Center
Wed 09:54:20 AM 28.0489 -92.9036 136° Southeast 473 544 37,000  Level Houston Center
Wed 09:55:22 AM 27.9550 -92.7972 135° Southeast 476 548 37,000  Level Houston Center
Wed 09:56:24 AM 27.8594 -92.6919 136° Southeast 479 551 37,000  Level Houston Center
Wed 09:57:26 AM 27.7453 -92.5667 136° Southeast 479 551 37,000  Level Houston Center
Wed 09:58:29 AM 27.6497 -92.4614 136° Southeast 480 552 37,000  Level Houston Center
Wed 09:59:31 AM 27.5553 -92.3547 135° Southeast 481 554 37,000 -48 Level Houston Center
Wed 10:00:33 AM 27.4597 -92.2508 136° Southeast 479 551 36,900  Descending Houston Center
Wed 10:01:35 AM 27.3647 -92.1489 136° Southeast 474 545 37,000 48 Climbing Houston Center
Wed 10:02:37 AM 27.2511 -92.0256 136° Southeast 474 545 37,000  Level Houston Center
Wed 10:03:39 AM 27.1533 -91.9239 137° Southeast 477 549 37,000  Level Houston Center
Wed 10:04:42 AM 27.0453 -91.8392 145° Southeast 474 545 37,000  Level Houston Center
Wed 10:06:00 AM 26.9194 -91.7379 144° Southeast  Level FlightAware Approximate
Wed 10:13:00 AM 26.2403 -91.1968 145° Southeast  Level FlightAware Approximate
Wed 10:14:00 AM 26.1430 -91.1202 145° Southeast  Level FlightAware Approximate
Wed 10:15:00 AM 26.0457 -91.0437 145° Southeast  Level FlightAware Approximate
Wed 10:16:00 AM 25.9483 -90.9674 145° Southeast  Level FlightAware Approximate
Wed 10:17:00 AM 25.8509 -90.8912 145° Southeast  Level FlightAware Approximate
Wed 10:18:00 AM 25.7534 -90.8151 145° Southeast  Level FlightAware Approximate
Wed 10:19:00 AM 25.6559 -90.7391 145° Southeast  Level FlightAware Approximate
Wed 10:20:00 AM 25.5584 -90.6633 145° Southeast  Level FlightAware Approximate
Wed 10:21:00 AM 25.4608 -90.5876 145° Southeast  Level FlightAware Approximate
Wed 10:22:00 AM 25.3632 -90.5120 145° Southeast  Level FlightAware Approximate
Wed 10:23:00 AM 25.2655 -90.4365 145° Southeast  Level FlightAware Approximate
Wed 10:24:00 AM 25.1679 -90.3612 145° Southeast  Level FlightAware Approximate
Wed 10:25:00 AM 25.0701 -90.2859 145° Southeast  Level FlightAware Approximate
Wed 10:26:00 AM 24.9723 -90.2108 145° Southeast  Level FlightAware Approximate
Wed 10:27:00 AM 24.8745 -90.1358 145° Southeast  Level FlightAware Approximate
Wed 10:28:00 AM 24.7767 -90.0610 145° Southeast  Level FlightAware Approximate
Wed 10:29:00 AM 24.6788 -89.9862 145° Southeast  Level FlightAware Approximate
Wed 10:30:00 AM 24.5809 -89.9116 145° Southeast  Level FlightAware Approximate
Wed 10:31:00 AM 24.4847 -89.8347 138° Southeast  Level FlightAware Approximate
Wed 10:32:00 AM 24.3869 -89.7599 145° Southeast  Level FlightAware Approximate
Wed 10:33:00 AM 24.2889 -89.6855 145° Southeast  Level FlightAware Approximate
Wed 10:34:00 AM 24.1909 -89.6113 145° Southeast  Level FlightAware Approximate
Wed 10:35:00 AM 24.0929 -89.5371 145° Southeast  Level FlightAware Approximate
Wed 10:36:00 AM 23.9948 -89.4630 145° Southeast  Level FlightAware Approximate
Wed 10:37:00 AM 23.8966 -89.3893 146° Southeast  Level FlightAware Approximate
Wed 10:38:00 AM 23.7981 -89.3161 146° Southeast  Level FlightAware Approximate
Wed 10:39:00 AM 23.6995 -89.2430 146° Southeast  Level FlightAware Approximate
Wed 10:40:00 AM 23.6009 -89.1700 146° Southeast  Level FlightAware Approximate
Wed 10:41:00 AM 23.5023 -89.0971 146° Southeast  Level FlightAware Approximate
Wed 10:42:00 AM 23.4037 -89.0243 146° Southeast  Level FlightAware Approximate
Wed 10:43:00 AM 23.3050 -88.9516 146° Southeast  Level FlightAware Approximate
Wed 10:44:00 AM 23.2063 -88.8791 146° Southeast  Level FlightAware Approximate
Wed 10:45:00 AM 23.1058 -88.8094 148° Southeast  Level FlightAware Approximate
Wed 10:46:00 AM 23.0082 -88.7355 143° Southeast  Level FlightAware Approximate
Wed 10:47:00 AM 22.9131 -88.6576 143° Southeast  Level FlightAware Approximate
Wed 10:48:00 AM 22.8136 -88.5868 148° Southeast  Level FlightAware Approximate
Wed 10:49:00 AM 22.7131 -88.5175 144° Southeast  Level FlightAware Approximate
Wed 10:50:00 AM 22.6163 -88.4423 144° Southeast  Level FlightAware Approximate
Wed 10:51:00 AM 22.5164 -88.3720 148° Southeast  Level FlightAware Approximate
Wed 10:52:00 AM 22.4223 -88.2945 155° Southeast  Level FlightAware Approximate
Wed 10:53:00 AM 22.3191 -88.2310 145° Southeast  Level FlightAware Approximate
Wed 10:54:00 AM 22.2213 -88.1576 145° Southeast  Level FlightAware Approximate
Wed 10:55:00 AM 22.1376 -88.0699 135° Southeast  Level FlightAware Approximate
Wed 10:56:00 AM 22.0536 -87.9788 135° Southeast  Level FlightAware Approximate
Wed 10:57:00 AM 21.9695 -87.8877 135° Southeast  Level FlightAware Approximate
Wed 10:58:00 AM 21.8844 -87.7979 136° Southeast  Level FlightAware Approximate
Wed 10:59:00 AM 21.7990 -87.7084 136° Southeast  Level FlightAware Approximate
Wed 11:00:00 AM 21.7135 -87.6191 136° Southeast  Level FlightAware Approximate
Wed 11:01:00 AM 21.6280 -87.5298 136° Southeast  Level FlightAware Approximate
Wed 11:02:00 AM 21.5453 -87.4377 132° Southeast  Level FlightAware Approximate
Wed 11:03:00 AM 21.4627 -87.3456 134° Southeast  Level FlightAware Approximate
Wed 11:04:00 AM 21.3799 -87.2536 134° Southeast  Level FlightAware Approximate
Wed 11:05:00 AM 21.2961 -87.1628 137° Southeast  Level FlightAware Approximate
Wed 11:06:00 AM 21.2090 -87.0756 137° Southeast  Level FlightAware Approximate
Wed 11:07:00 AM 21.1332 -86.9832 137° Southeast  Level FlightAware Approximate
Wed 11:08:00 AM 21.0461 -86.8961 137° Southeast  Level FlightAware Approximate
Wed 11:09:00 AM 21.0365 -86.8771 137° Southeast  Level Estimated
Wed 11:10:00 AM 21.0365 -86.8771 137° Southeast  Level Estimated

Login

Don't have an account? Register now (free) for customized features, flight alerts, and more!